createdAt,value
2023-04-25T00:03:15.899Z,14.80
2023-04-25T00:07:16.390Z,14.75
2023-04-25T00:11:16.567Z,14.72
2023-04-25T00:15:17.399Z,14.75
2023-04-25T00:19:20.128Z,14.70
2023-04-25T00:23:21.332Z,14.65
2023-04-25T00:27:21.464Z,14.80
2023-04-25T00:31:22.016Z,14.85
2023-04-25T00:35:24.785Z,15.03
2023-04-25T00:39:24.940Z,15.12
2023-04-25T00:43:25.474Z,15.18
2023-04-25T00:47:26.348Z,15.18
2023-04-25T00:51:31.676Z,14.97
2023-04-25T00:55:32.624Z,15.16
2023-04-25T00:59:33.586Z,15.13
2023-04-25T01:03:37.868Z,15.01
2023-04-25T01:07:41.857Z,15.05
2023-04-25T01:11:42.047Z,14.94
2023-04-25T01:15:42.310Z,15.01
2023-04-25T01:19:43.207Z,14.98
2023-04-25T01:23:46.984Z,15.20
2023-04-25T01:27:48.128Z,15.25
2023-04-25T01:31:49.629Z,15.22
2023-04-25T01:35:49.882Z,15.36
2023-04-25T01:39:56.477Z,14.91
2023-04-25T01:43:56.828Z,15.14
2023-04-25T01:48:00.550Z,15.15
2023-04-25T01:52:00.911Z,15.00
2023-04-25T01:56:03.633Z,14.78
2023-04-25T02:00:11.401Z,14.85
2023-04-25T02:04:14.346Z,14.36
2023-04-25T02:08:15.330Z,14.22
2023-04-25T02:12:18.376Z,14.24
2023-04-25T02:16:33.809Z,14.45
2023-04-25T02:20:36.026Z,14.34
2023-04-25T02:24:36.362Z,14.54
2023-04-25T02:28:39.566Z,14.47
2023-04-25T02:32:40.196Z,14.55
2023-04-25T02:36:40.757Z,14.46
2023-04-25T02:40:41.812Z,14.45
2023-04-25T02:44:44.572Z,14.02
2023-04-25T02:48:44.839Z,14.07
2023-04-25T02:52:44.978Z,14.30
2023-04-25T02:56:49.817Z,14.20
2023-04-25T03:00:59.070Z,14.04
2023-04-25T03:04:59.310Z,13.93
2023-04-25T03:09:01.113Z,14.10
2023-04-25T03:13:01.352Z,14.14
2023-04-25T03:17:04.254Z,14.05
2023-04-25T03:21:04.741Z,14.18
2023-04-25T03:25:05.364Z,14.18
2023-04-25T03:29:05.568Z,14.01
2023-04-25T03:33:08.505Z,14.06
2023-04-25T03:37:09.055Z,14.09
2023-04-25T03:41:12.289Z,14.06
2023-04-25T03:45:16.647Z,14.17
2023-04-25T03:49:20.660Z,13.92
2023-04-25T03:53:31.680Z,13.91
2023-04-25T03:57:50.488Z,13.84
2023-04-25T04:01:51.022Z,13.94
2023-04-25T04:05:54.443Z,14.06
2023-04-25T04:09:54.988Z,13.99
2023-04-25T04:14:01.448Z,14.07
2023-04-25T04:18:03.970Z,14.30
2023-04-25T04:22:07.954Z,14.30
2023-04-25T04:26:09.726Z,14.29
2023-04-25T04:30:32.155Z,14.55
2023-04-25T04:34:35.023Z,14.60
2023-04-25T04:38:40.072Z,14.59
2023-04-25T04:42:43.895Z,14.81
2023-04-25T04:47:09.541Z,14.80
2023-04-25T04:51:30.244Z,14.88
2023-04-25T04:55:42.296Z,14.82
2023-04-25T05:00:04.091Z,14.87
2023-04-25T05:04:29.659Z,14.80
2023-04-25T05:08:51.303Z,14.70
2023-04-25T05:13:14.066Z,14.99
2023-04-25T05:17:23.304Z,14.15
2023-04-25T05:21:42.165Z,14.49
2023-04-25T05:25:50.043Z,14.34
2023-04-25T05:30:14.638Z,14.15
2023-04-25T05:34:31.434Z,14.00
2023-04-25T05:38:37.721Z,14.35
2023-04-25T05:43:00.916Z,14.47
2023-04-25T05:47:19.780Z,14.43
2023-04-25T05:51:40.259Z,14.50
2023-04-25T05:56:00.980Z,14.49
2023-04-25T06:00:02.662Z,14.85
2023-04-25T06:04:32.178Z,14.96
2023-04-25T06:08:32.592Z,15.03
2023-04-25T06:12:32.951Z,15.25
2023-04-25T06:16:33.361Z,15.12
2023-04-25T06:20:36.572Z,15.02
2023-04-25T06:24:37.490Z,14.74
2023-04-25T06:28:38.381Z,14.24
2023-04-25T06:32:38.971Z,14.71
2023-04-25T06:36:42.639Z,14.82
2023-04-25T06:40:46.097Z,14.51
2023-04-25T06:44:46.310Z,14.99
2023-04-25T06:48:47.201Z,14.03
2023-04-25T06:52:49.919Z,14.68
2023-04-25T06:56:51.644Z,14.56
2023-04-25T07:00:52.024Z,14.71
2023-04-25T07:04:56.513Z,14.89
2023-04-25T07:08:59.405Z,15.24
2023-04-25T07:12:59.874Z,14.83
2023-04-25T07:17:00.703Z,13.97
2023-04-25T07:21:03.168Z,14.60
2023-04-25T07:25:09.753Z,14.98
2023-04-25T07:29:10.038Z,14.90
2023-04-25T07:33:10.245Z,13.91
2023-04-25T07:37:10.478Z,14.65
2023-04-25T07:41:23.664Z,14.52
2023-04-25T07:45:24.779Z,13.88
2023-04-25T07:49:25.968Z,14.24
2023-04-25T07:53:26.457Z,14.35
2023-04-25T07:57:34.689Z,14.60
2023-04-25T08:01:36.637Z,14.54
2023-04-25T08:05:39.586Z,14.57
2023-04-25T08:09:40.991Z,14.54
2023-04-25T08:13:49.956Z,14.37
2023-04-25T08:17:50.493Z,14.70
2023-04-25T08:21:53.021Z,15.16
2023-04-25T08:26:00.340Z,15.53
2023-04-25T08:30:06.730Z,15.44
2023-04-25T08:34:07.167Z,15.75
2023-04-25T08:38:26.486Z,15.92
2023-04-25T08:42:31.272Z,14.76
2023-04-25T08:46:35.935Z,14.76
2023-04-25T08:50:55.729Z,14.95
2023-04-25T08:54:59.191Z,14.36
2023-04-25T08:59:02.217Z,14.52
2023-04-25T09:03:07.113Z,14.16
2023-04-25T09:07:07.938Z,14.52
2023-04-25T09:11:08.442Z,14.39
2023-04-25T09:15:12.056Z,14.72
2023-04-25T09:19:42.056Z,15.54
2023-04-25T09:23:56.880Z,15.63
2023-04-25T09:27:58.219Z,16.21
2023-04-25T09:32:20.985Z,16.82
2023-04-25T09:36:31.799Z,16.98
2023-04-25T09:40:53.407Z,18.61
2023-04-25T09:45:17.374Z,20.37
2023-04-25T09:49:19.122Z,21.48
2023-04-25T09:53:31.409Z,20.44
2023-04-25T09:58:09.555Z,19.44
2023-04-25T10:02:11.946Z,20.18
2023-04-25T10:06:18.537Z,20.05
2023-04-25T10:10:26.907Z,21.31
2023-04-25T10:14:28.194Z,20.54
2023-04-25T10:18:29.706Z,19.57
2023-04-25T10:22:36.685Z,19.39
2023-04-25T10:26:39.602Z,20.84
2023-04-25T10:30:39.901Z,21.67
2023-04-25T10:34:48.348Z,20.26
2023-04-25T10:38:51.702Z,19.90
2023-04-25T10:42:56.268Z,20.16
2023-04-25T10:46:58.811Z,18.79
2023-04-25T10:51:12.338Z,18.74
2023-04-25T10:55:13.398Z,19.42
2023-04-25T10:59:18.218Z,19.25
2023-04-25T11:03:21.015Z,18.94
2023-04-25T11:07:32.732Z,19.17
2023-04-25T11:11:34.170Z,21.01
2023-04-25T11:15:37.092Z,22.48
2023-04-25T11:19:37.893Z,21.63
2023-04-25T11:23:38.866Z,20.94
2023-04-25T11:27:43.823Z,20.09
2023-04-25T11:31:49.160Z,22.77
2023-04-25T11:35:49.397Z,24.37
2023-04-25T11:39:50.513Z,23.36
2023-04-25T11:43:53.332Z,22.38
2023-04-25T11:47:57.010Z,21.64
2023-04-25T11:51:57.211Z,21.65
2023-04-25T11:55:57.362Z,20.51
2023-04-25T11:59:57.592Z,20.07
2023-04-25T12:04:00.720Z,20.09
2023-04-25T12:08:01.433Z,19.58
2023-04-25T12:12:07.006Z,19.64
2023-04-25T12:16:07.908Z,19.85
2023-04-25T12:20:16.391Z,20.18
2023-04-25T12:24:20.504Z,20.42
2023-04-25T12:28:24.968Z,19.97
2023-04-25T12:32:26.326Z,19.52
2023-04-25T12:36:29.313Z,19.24
2023-04-25T12:40:29.703Z,19.08
2023-04-25T12:44:29.970Z,19.08
2023-04-25T12:48:30.138Z,19.82
2023-04-25T12:52:32.839Z,21.30
2023-04-25T12:56:33.430Z,21.93
2023-04-25T13:00:33.710Z,21.73
2023-04-25T13:04:34.152Z,20.95
2023-04-25T13:08:37.904Z,21.50
2023-04-25T13:12:38.161Z,21.31
2023-04-25T13:16:38.468Z,20.93
2023-04-25T13:20:38.815Z,20.38
2023-04-25T13:24:41.837Z,19.87
2023-04-25T13:28:43.600Z,20.48
2023-04-25T13:32:45.080Z,20.52
2023-04-25T13:36:45.299Z,20.08
2023-04-25T13:40:48.011Z,19.77
2023-04-25T13:44:48.169Z,20.47
2023-04-25T13:48:49.841Z,20.91
2023-04-25T13:52:50.010Z,20.79
2023-04-25T13:56:56.473Z,19.33
2023-04-25T14:00:56.596Z,19.27
2023-04-25T14:04:56.947Z,19.24
2023-04-25T14:08:57.568Z,19.48
2023-04-25T14:13:00.327Z,19.54
2023-04-25T14:17:00.520Z,19.44
2023-04-25T14:21:01.212Z,18.59
2023-04-25T14:25:02.109Z,19.35
2023-04-25T14:29:04.897Z,19.31
2023-04-25T14:33:05.151Z,19.19
2023-04-25T14:37:05.427Z,18.79
2023-04-25T14:41:05.958Z,18.73
2023-04-25T14:45:11.937Z,19.28
2023-04-25T14:49:12.397Z,19.22
2023-04-25T14:53:13.817Z,19.29
2023-04-25T14:57:14.490Z,18.97
2023-04-25T15:01:18.301Z,19.05
2023-04-25T15:05:18.992Z,19.17
2023-04-25T15:09:19.574Z,18.88
2023-04-25T15:13:21.803Z,18.81
2023-04-25T15:17:24.573Z,18.82
2023-04-25T15:21:24.823Z,18.68
2023-04-25T15:25:25.094Z,18.47
2023-04-25T15:29:25.744Z,18.26
2023-04-25T15:33:28.584Z,18.06
2023-04-25T15:37:28.778Z,18.20
2023-04-25T15:41:29.045Z,18.16
2023-04-25T15:45:29.911Z,17.78
2023-04-25T15:49:32.818Z,17.63
2023-04-25T15:53:33.131Z,17.67
2023-04-25T15:57:33.908Z,17.61
2023-04-25T16:01:35.012Z,17.73
2023-04-25T16:05:37.791Z,18.07
2023-04-25T16:09:39.214Z,17.86
2023-04-25T16:13:39.564Z,17.81
2023-04-25T16:17:40.678Z,18.02
2023-04-25T16:21:43.486Z,17.48
2023-04-25T16:25:44.603Z,17.22
2023-04-25T16:29:45.218Z,17.44
2023-04-25T16:33:48.557Z,17.50
2023-04-25T16:37:51.676Z,17.46
2023-04-25T16:41:52.213Z,17.62
2023-04-25T16:45:52.372Z,17.43
2023-04-25T16:49:53.318Z,17.45
2023-04-25T16:53:56.357Z,16.85
2023-04-25T16:57:56.505Z,17.20
2023-04-25T17:01:57.002Z,17.16
2023-04-25T17:06:01.403Z,17.59
2023-04-25T17:10:04.221Z,17.47
2023-04-25T17:14:04.419Z,17.18
2023-04-25T17:18:04.618Z,17.60
2023-04-25T17:22:04.905Z,17.71
2023-04-25T17:26:07.700Z,17.35
2023-04-25T17:30:10.124Z,16.74
2023-04-25T17:34:11.891Z,16.65
2023-04-25T17:38:12.356Z,16.45
2023-04-25T17:42:15.575Z,16.98
2023-04-25T17:46:15.949Z,16.71
2023-04-25T17:50:16.959Z,16.57
2023-04-25T17:54:18.513Z,16.65
2023-04-25T17:58:21.731Z,16.63
2023-04-25T18:02:22.263Z,16.55
2023-04-25T18:06:22.697Z,16.60
2023-04-25T18:10:23.149Z,16.44
2023-04-25T18:14:26.051Z,16.37
2023-04-25T18:18:33.351Z,16.08
2023-04-25T18:22:33.839Z,16.15
2023-04-25T18:26:34.429Z,15.89
2023-04-25T18:30:38.162Z,15.80
2023-04-25T18:34:41.723Z,15.71
2023-04-25T18:38:41.922Z,15.96
2023-04-25T18:42:42.848Z,16.08
2023-04-25T18:46:47.459Z,16.16
2023-04-25T18:50:47.676Z,16.08
2023-04-25T18:54:48.305Z,16.07
2023-04-25T18:58:48.838Z,15.97
2023-04-25T19:07:32.603Z,16.38
2023-04-25T19:11:32.956Z,16.30
2023-04-25T19:15:33.662Z,16.17
2023-04-25T19:19:34.169Z,16.26
2023-04-25T19:23:37.572Z,16.15
2023-04-25T19:27:37.872Z,16.10
2023-04-25T19:31:39.787Z,15.94
2023-04-25T19:35:40.200Z,15.94
2023-04-25T19:39:43.542Z,15.88
2023-04-25T19:43:43.939Z,15.75
2023-04-25T19:47:45.224Z,15.48
2023-04-25T19:51:46.523Z,15.28
2023-04-25T19:55:49.496Z,15.04
2023-04-25T19:59:49.922Z,14.94
2023-04-25T20:03:52.045Z,14.98
2023-04-25T20:07:53.116Z,15.15
2023-04-25T20:11:56.439Z,15.34
2023-04-25T20:15:56.639Z,15.31
2023-04-25T20:19:56.814Z,15.35
2023-04-25T20:23:58.188Z,15.24
2023-04-25T20:28:01.334Z,15.12
2023-04-25T20:32:03.558Z,15.20
2023-04-25T20:36:04.278Z,15.17
2023-04-25T20:40:06.725Z,15.34
2023-04-25T20:44:09.951Z,15.39
2023-04-25T20:48:10.923Z,15.30
2023-04-25T20:52:11.242Z,15.30
2023-04-25T20:56:13.041Z,15.31
2023-04-25T21:00:26.834Z,14.87
2023-04-25T21:04:27.320Z,14.86
2023-04-25T21:08:27.794Z,14.40
2023-04-25T21:12:28.097Z,14.48
2023-04-25T21:16:34.878Z,14.39
2023-04-25T21:20:36.207Z,14.35
2023-04-25T21:24:36.446Z,14.32
2023-04-25T21:28:36.797Z,14.21
2023-04-25T21:32:40.567Z,14.20
2023-04-25T21:36:41.478Z,14.03
2023-04-25T21:40:44.474Z,14.07
2023-04-25T21:44:44.791Z,14.30
2023-04-25T21:48:48.148Z,14.48
2023-04-25T21:52:48.631Z,14.64
2023-04-25T21:56:48.866Z,14.56
2023-04-25T22:00:49.345Z,14.36
2023-04-25T22:04:52.682Z,14.64
2023-04-25T22:08:53.333Z,14.74
2023-04-25T22:12:54.270Z,14.68
2023-04-25T22:16:54.636Z,14.56
2023-04-25T22:20:57.531Z,14.54
2023-04-25T22:24:57.729Z,14.38
2023-04-25T22:28:57.901Z,14.25
2023-04-25T22:32:58.249Z,14.08
2023-04-25T22:37:01.215Z,14.04
2023-04-25T22:41:01.684Z,14.06
2023-04-25T22:45:03.211Z,14.27
2023-04-25T22:49:03.405Z,13.95
2023-04-25T22:53:06.991Z,14.13
2023-04-25T22:57:10.190Z,14.20
2023-04-25T23:01:11.718Z,14.23
2023-04-25T23:05:13.303Z,14.27
2023-04-25T23:09:16.120Z,13.93
2023-04-25T23:13:16.874Z,13.62
2023-04-25T23:17:17.218Z,13.44
2023-04-25T23:21:17.467Z,13.25
2023-04-25T23:25:20.782Z,12.98
2023-04-25T23:29:21.174Z,12.66
2023-04-25T23:33:21.395Z,12.61
2023-04-25T23:37:21.651Z,12.50
2023-04-25T23:41:25.489Z,12.21
2023-04-25T23:45:25.671Z,12.22
2023-04-25T23:49:26.042Z,12.20
2023-04-25T23:53:26.388Z,12.30
2023-04-25T23:57:29.599Z,12.29
